• Join FlightAware (Why Join?)
  • Login
  • US Flag 
 
01:17AM EST


 

Airport Tracker/Info


-or-


 

Live Flight TrackerFlight Track Log ✈ N1944E ✈ 18-Oct-2013 ✈ KSDY - KBIL

Flight Track Log - Related Links

Times and Time Zones

All times are in EDT time to prevent confusion due to time zone crossing. See the N1944E flight status page for this flight to view local times or setup timezone preferences in your user account.

Time Position Orientation Groundspeed Altitude Reporting Facility
EDT Latitude Longitude Course Direction KTS MPH feet Rate Location/Type
06:53PM 47.6644 -104.3222 241° Southwest 120 138 5,000  Level Salt Lake Center
06:54PM 47.6497 -104.3633 242° Southwest 118 136 6,000 840 Climbing Salt Lake Center
06:55PM 47.6333 -104.4053 240° Southwest 117 135 6,800 900 Climbing Salt Lake Center
06:56PM 47.6119 -104.4586 239° Southwest 121 139 7,900 960 Climbing Salt Lake Center
06:57PM 47.5939 -104.5056 240° Southwest 126 145 8,800 840 Climbing Salt Lake Center
06:58PM 47.5756 -104.5539 241° Southwest 131 151 9,700 780 Climbing Salt Lake Center
06:59PM 47.5555 -104.5656 241° Southwest  Level Estimated
06:59PM 47.5564 -104.6044 241° Southwest 136 157 10,500  Level Salt Lake Center
07:00PM 47.5367 -104.6553 240° Southwest 140 161 11,500 840 Climbing Salt Lake Center
07:01PM 47.5142 -104.7050 236° Southwest 142 163 12,300 840 Climbing Salt Lake Center
07:02PM 47.4878 -104.7650 237° Southwest 144 166 13,300 720 Climbing Salt Lake Center
07:03PM 47.4653 -104.8164 237° Southwest 146 168 13,800 240 Climbing Salt Lake Center
07:04PM 47.4400 -104.8783 239° Southwest 159 183 13,900  Climbing Salt Lake Center
07:05PM 47.4139 -104.9461 240° Southwest 176 203 13,900  Level Salt Lake Center
07:06PM 47.3878 -105.0122 240° Southwest 183 211 13,900  Level Salt Lake Center
07:07PM 47.3625 -105.0767 240° Southwest 184 212 13,900  Level Salt Lake Center
07:08PM 47.3350 -105.1397 237° Southwest 184 212 13,900  Level Salt Lake Center
07:09PM 47.3022 -105.2178 238° Southwest 185 213 13,900  Level Salt Lake Center
07:10PM 47.2728 -105.2833 237° Southwest 188 216 13,900  Level Salt Lake Center
07:11PM 47.2456 -105.3461 237° Southwest 187 215 13,900  Level Salt Lake Center
07:13PM 47.2169 -105.4061 235° Southwest 184 212 13,900  Level Salt Lake Center
07:14PM 47.1922 -105.4672 239° Southwest 180 207 13,900  Level Salt Lake Center
07:15PM 47.1667 -105.5269 238° Southwest 176 203 13,900  Level Salt Lake Center
07:16PM 47.1394 -105.5875 237° Southwest 175 201 13,900  Level Salt Lake Center
07:17PM 47.1083 -105.6608 238° Southwest 176 203 13,900 120 Level Salt Lake Center
07:18PM 47.0828 -105.7192 237° Southwest 174 200 14,200 240 Climbing Salt Lake Center
07:19PM 47.0589 -105.7733 237° Southwest 168 193 14,500 240 Climbing Salt Lake Center
07:20PM 47.0361 -105.8325 241° Southwest 166 191 14,700 180 Climbing Salt Lake Center
07:21PM 47.0119 -105.8928 240° Southwest 168 193 14,900 60 Climbing Salt Lake Center
07:22PM 46.9847 -105.9550 237° Southwest 174 200 14,900  Level Salt Lake Center
07:23PM 46.9544 -106.0167 234° Southwest 181 208 14,900  Level Salt Lake Center
07:24PM 46.9214 -106.0936 238° Southwest 184 212 14,900  Level Salt Lake Center
07:25PM 46.8933 -106.1583 238° Southwest 187 215 14,900  Level Salt Lake Center
07:26PM 46.8658 -106.2233 238° Southwest 188 216 14,900  Level Salt Lake Center
07:27PM 46.8375 -106.2872 237° Southwest 188 216 14,900  Level Salt Lake Center
07:28PM 46.8078 -106.3539 237° Southwest 191 220 14,900  Level Salt Lake Center
07:29PM 46.7828 -106.4203 241° Southwest 190 219 14,900  Level Salt Lake Center
07:30PM 46.7539 -106.4869 238° Southwest 192 221 14,900  Level Salt Lake Center
07:31PM 46.7150 -106.5667 235° Southwest 198 228 14,900  Level Salt Lake Center
07:32PM 46.6836 -106.6317 235° Southwest 198 228 14,900  Level Salt Lake Center
07:33PM 46.6600 -106.6989 243° Southwest 191 220 14,900  Level Salt Lake Center
07:34PM 46.6331 -106.7622 238° Southwest 191 220 14,900  Level Salt Lake Center
07:35PM 46.5986 -106.8392 237° Southwest 190 219 14,900  Level Salt Lake Center
07:36PM 46.5689 -106.9011 235° Southwest 188 216 14,900  Level Salt Lake Center
07:37PM 46.5389 -106.9611 234° Southwest 186 214 14,900  Level Salt Lake Center
07:38PM 46.5144 -107.0142 236° Southwest 186 214 14,900  Level Salt Lake Center
07:40PM 46.4776 -107.0900 235° Southwest  Level FlightAware Approximate
07:44PM 46.3350 -107.4153 242° Southwest 189 217 15,000  Level Salt Lake Center
07:45PM 46.3064 -107.4819 238° Southwest 195 224 14,700 -360 Descending Salt Lake Center
07:46PM 46.2697 -107.5603 236° Southwest 208 239 14,300 -420 Descending Salt Lake Center
07:47PM 46.2716 -107.5068 234° Southwest  Level FlightAware Approximate
07:47PM 46.2392 -107.6278 237° Southwest 204 235 13,900  Level Salt Lake Center
07:48PM 46.2467 -107.5701 242° Southwest  Level FlightAware Approximate
07:48PM 46.2083 -107.6953 237° Southwest 202 232 13,300  Level Salt Lake Center
07:49PM 46.2226 -107.6341 242° Southwest  Level FlightAware Approximate
07:49PM 46.1728 -107.7706 236° Southwest 212 244 12,500  Level Salt Lake Center
07:50PM 46.1394 -107.8411 236° Southwest 215 247 11,800 -720 Descending Salt Lake Center
07:51PM 46.1067 -107.9142 237° Southwest 205 236 11,100 -780 Descending Salt Lake Center
07:52PM 46.0747 -107.9828 236° Southwest 208 239 10,300 -780 Descending Salt Lake Center
07:53PM 46.0400 -108.0503 233° Southwest 198 228 9,500 -960 Descending Salt Lake Center
07:54PM 46.0097 -108.1142 236° Southwest 194 223 8,400 -840 Descending Salt Lake Center
07:56PM 45.9683 -108.1656 221° Southwest 192 221 7,900 -420 Descending Salt Lake Center
07:57PM 45.9178 -108.1781 190° South 187 215 7,600 -480 Descending Salt Lake Center
07:58PM 45.8675 -108.1900 189° South 185 213 7,000 -840 Descending Salt Lake Center
07:59PM 45.8339 -108.2478 230° Southwest 175 201 5,900 -840 Descending Salt Lake Center
08:00PM 45.8078 -108.3094 239° Southwest 168 193 5,300 -480 Descending Salt Lake Center
08:01PM 45.8008 -108.3667 260° West 148 170 5,000 -360 Descending Salt Lake Center
08:02PM 45.7964 -108.4236 264° West 147 169 4,600 -360 Descending Salt Lake Center
08:03PM 45.7944 -108.4794 267° West 133 153 4,300 -540 Descending Salt Lake Center
08:04PM 45.8025 -108.5206 286° West 111 128 3,600 -720 Descending Salt Lake Center
08:06PM 45.8000 -108.5333 282° West  Level FlightAware Approximate